createdAt,value
2018-08-10T00:01:17.041Z,15.60
2018-08-10T00:05:25.217Z,15.50
2018-08-10T00:09:33.398Z,15.40
2018-08-10T00:13:41.609Z,15.20
2018-08-10T00:17:50.789Z,15.10
2018-08-10T00:21:58.973Z,15.10
2018-08-10T00:26:07.262Z,15.20
2018-08-10T00:30:16.858Z,15.20
2018-08-10T00:34:25.055Z,15.20
2018-08-10T00:38:33.277Z,15.10
2018-08-10T00:42:41.535Z,15.10
2018-08-10T00:50:57.665Z,14.90
2018-08-10T00:55:07.525Z,14.80
2018-08-10T00:59:15.738Z,14.70
2018-08-10T01:03:24.003Z,14.60
2018-08-10T01:07:32.281Z,14.50
2018-08-10T01:11:40.469Z,14.40
2018-08-10T01:15:48.651Z,14.30
2018-08-10T01:19:56.849Z,14.30
2018-08-10T01:24:05.025Z,14.20
2018-08-10T01:28:12.579Z,14.20
2018-08-10T01:32:20.718Z,14.20
2018-08-10T01:36:28.982Z,14.10
2018-08-10T01:40:37.218Z,14.10
2018-08-10T01:44:45.434Z,14.00
2018-08-10T01:48:52.954Z,14.00
2018-08-10T01:53:01.141Z,14.00
2018-08-10T01:57:09.374Z,13.90
2018-08-10T02:01:17.689Z,13.80
2018-08-10T02:05:25.873Z,13.80
2018-08-10T02:09:34.039Z,13.70
2018-08-10T02:13:42.220Z,13.70
2018-08-10T02:17:50.474Z,13.60
2018-08-10T02:21:58.665Z,13.60
2018-08-10T02:26:06.881Z,13.50
2018-08-10T02:30:16.389Z,13.60
2018-08-10T02:34:24.669Z,13.70
2018-08-10T02:38:32.870Z,13.80
2018-08-10T02:42:41.360Z,13.90
2018-08-10T02:46:48.957Z,13.90
2018-08-10T02:50:56.539Z,14.00
2018-08-10T02:55:06.921Z,14.00
2018-08-10T02:59:15.093Z,14.00
2018-08-10T03:03:23.273Z,14.10
2018-08-10T03:07:31.458Z,14.10
2018-08-10T03:11:40.554Z,14.10
2018-08-10T03:15:48.742Z,14.10
2018-08-10T03:19:56.230Z,14.10
2018-08-10T03:24:04.821Z,14.20
2018-08-10T03:28:13.008Z,14.30
2018-08-10T03:32:21.350Z,14.30
2018-08-10T03:36:29.554Z,14.40
2018-08-10T03:40:37.750Z,14.50
2018-08-10T03:44:45.968Z,14.50
2018-08-10T03:48:54.184Z,14.50
2018-08-10T03:53:02.381Z,14.50
2018-08-10T03:57:10.579Z,14.40
2018-08-10T04:01:18.769Z,14.40
2018-08-10T04:05:26.968Z,14.40
2018-08-10T04:09:35.165Z,14.50
2018-08-10T04:13:43.357Z,14.50
2018-08-10T04:17:51.566Z,14.40
2018-08-10T04:21:59.757Z,14.40
2018-08-10T04:26:08.008Z,14.40
2018-08-10T04:30:16.254Z,14.40
2018-08-10T04:34:24.461Z,14.40
2018-08-10T04:38:32.717Z,14.60
2018-08-10T04:42:41.012Z,14.80
2018-08-10T04:46:49.334Z,15.00
2018-08-10T04:50:57.501Z,15.10
2018-08-10T04:59:13.937Z,15.40
2018-08-10T05:03:22.302Z,15.70
2018-08-10T05:07:30.621Z,16.00
2018-08-10T05:11:38.794Z,16.10
2018-08-10T05:15:47.025Z,16.40
2018-08-10T05:19:55.153Z,16.70
2018-08-10T05:24:03.678Z,16.80
2018-08-10T05:28:11.862Z,17.00
2018-08-10T05:32:20.106Z,17.00
2018-08-10T05:36:28.269Z,17.10
2018-08-10T05:40:36.800Z,17.20
2018-08-10T05:44:45.120Z,17.30
2018-08-10T05:48:53.414Z,17.30
2018-08-10T05:53:01.610Z,17.10
2018-08-10T05:57:09.775Z,16.70
2018-08-10T06:01:17.962Z,16.40
2018-08-10T06:05:26.137Z,16.30
2018-08-10T06:09:34.346Z,16.20
2018-08-10T06:13:42.550Z,16.20
2018-08-10T06:17:50.735Z,16.20
2018-08-10T06:21:58.955Z,16.30
2018-08-10T06:26:07.129Z,16.20
2018-08-10T06:30:15.319Z,16.30
2018-08-10T06:34:23.638Z,16.40
2018-08-10T06:38:31.827Z,16.20
2018-08-10T06:42:40.009Z,16.10
2018-08-10T06:46:48.191Z,16.20
2018-08-10T06:50:56.384Z,16.50
2018-08-10T06:55:04.857Z,16.60
2018-08-10T06:59:13.050Z,17.00
2018-08-10T07:07:29.250Z,17.20
2018-08-10T07:15:45.365Z,17.60
2018-08-10T07:19:53.605Z,17.90
2018-08-10T07:24:01.781Z,17.90
2018-08-10T07:32:17.939Z,18.40
2018-08-10T07:36:26.149Z,18.30
2018-08-10T07:40:34.363Z,18.30
2018-08-10T07:44:42.595Z,18.10
2018-08-10T07:48:50.788Z,18.50
2018-08-10T07:52:58.993Z,19.20
2018-08-10T07:57:07.446Z,19.60
2018-08-10T08:01:15.672Z,20.00
2018-08-10T08:05:23.209Z,20.10
2018-08-10T08:09:31.472Z,20.30
2018-08-10T08:13:39.662Z,20.30
2018-08-10T08:17:47.898Z,20.00
2018-08-10T08:22:08.683Z,20.20
2018-08-10T08:26:16.867Z,20.40
2018-08-10T08:30:25.062Z,19.90
2018-08-10T08:34:33.332Z,20.00
2018-08-10T08:39:00.766Z,20.40
2018-08-10T08:43:08.998Z,20.50
2018-08-10T08:47:17.204Z,20.60
2018-08-10T08:51:26.321Z,20.80
2018-08-10T08:55:37.111Z,20.40
2018-08-10T08:59:45.316Z,20.00
2018-08-10T09:05:03.646Z,19.90
2018-08-10T09:09:23.250Z,20.40
2018-08-10T09:13:43.348Z,20.90
2018-08-10T09:17:51.557Z,21.20
2018-08-10T09:21:59.766Z,21.50
2018-08-10T09:26:07.983Z,21.50
2018-08-10T09:30:17.458Z,21.90
2018-08-10T09:34:26.213Z,22.20
2018-08-10T09:38:34.420Z,22.80
2018-08-10T09:42:42.649Z,23.00
2018-08-10T09:46:50.859Z,22.80
2018-08-10T09:50:59.064Z,22.80
2018-08-10T09:55:40.869Z,23.20
2018-08-10T09:59:49.107Z,23.30
2018-08-10T10:03:57.281Z,23.50
2018-08-10T10:08:05.625Z,23.70
2018-08-10T10:12:13.845Z,23.50
2018-08-10T10:16:22.054Z,22.80
2018-08-10T10:20:30.245Z,22.40
2018-08-10T10:24:38.457Z,22.40
2018-08-10T10:28:46.669Z,22.80
2018-08-10T10:32:54.877Z,23.60
2018-08-10T10:37:03.091Z,23.40
2018-08-10T10:41:11.329Z,23.30
2018-08-10T10:45:19.545Z,23.20
2018-08-10T10:53:35.713Z,22.70
2018-08-10T10:57:44.315Z,23.20
2018-08-10T11:01:52.509Z,23.50
2018-08-10T11:10:10.281Z,23.90
2018-08-10T11:14:18.581Z,24.00
2018-08-10T11:18:26.776Z,24.50
2018-08-10T11:22:35.017Z,24.50
2018-08-10T11:26:43.225Z,24.10
2018-08-10T11:30:51.449Z,24.40
2018-08-10T11:35:00.869Z,24.00
2018-08-10T11:39:10.903Z,23.60
2018-08-10T11:43:19.113Z,23.10
2018-08-10T11:47:27.320Z,23.60
2018-08-10T11:51:35.593Z,24.50
2018-08-10T11:55:43.814Z,25.10
2018-08-10T11:59:52.071Z,24.70
2018-08-10T12:04:00.312Z,24.10
2018-08-10T12:08:08.525Z,24.20
2018-08-10T12:12:16.750Z,23.70
2018-08-10T12:16:24.970Z,23.20
2018-08-10T12:20:33.185Z,23.00
2018-08-10T12:24:41.427Z,22.50
2018-08-10T12:28:49.578Z,22.10
2018-08-10T12:32:57.805Z,22.30
2018-08-10T12:37:06.332Z,22.50
2018-08-10T12:41:14.518Z,23.20
2018-08-10T12:45:22.718Z,23.80
2018-08-10T12:49:30.942Z,24.40
2018-08-10T12:53:39.166Z,24.60
2018-08-10T12:57:47.362Z,24.50
2018-08-10T13:01:55.564Z,23.90
2018-08-10T13:06:03.757Z,23.60
2018-08-10T13:10:12.710Z,23.70
2018-08-10T13:14:20.912Z,24.50
2018-08-10T13:18:29.302Z,24.40
2018-08-10T13:22:37.867Z,23.90
2018-08-10T13:26:46.060Z,24.30
2018-08-10T13:30:54.262Z,24.60
2018-08-10T13:35:02.757Z,25.00
2018-08-10T13:39:12.230Z,25.30
2018-08-10T13:43:20.427Z,25.20
2018-08-10T13:47:28.668Z,25.60
2018-08-10T13:51:36.938Z,25.50
2018-08-10T13:55:45.146Z,25.30
2018-08-10T13:59:53.317Z,25.50
2018-08-10T14:04:01.517Z,25.30
2018-08-10T14:08:09.756Z,24.60
2018-08-10T14:12:17.926Z,24.40
2018-08-10T14:16:26.096Z,24.50
2018-08-10T14:20:34.306Z,24.90
2018-08-10T14:24:42.476Z,25.20
2018-08-10T14:28:50.662Z,25.20
2018-08-10T14:32:58.844Z,25.20
2018-08-10T14:37:08.413Z,24.70
2018-08-10T14:41:16.619Z,25.30
2018-08-10T14:45:24.797Z,25.30
2018-08-10T14:49:33.014Z,24.50
2018-08-10T14:53:41.325Z,24.10
2018-08-10T14:57:49.438Z,23.80
2018-08-10T15:01:57.702Z,24.10
2018-08-10T15:06:05.897Z,24.60
2018-08-10T15:10:15.365Z,25.10
2018-08-10T15:14:23.558Z,25.20
2018-08-10T15:18:31.854Z,25.00
2018-08-10T15:22:40.173Z,25.20
2018-08-10T15:26:48.346Z,25.10
2018-08-10T15:30:56.567Z,24.70
2018-08-10T15:35:05.406Z,24.10
2018-08-10T15:39:13.582Z,23.90
2018-08-10T15:43:21.753Z,24.10
2018-08-10T15:47:29.943Z,24.70
2018-08-10T15:51:38.206Z,24.20
2018-08-10T15:55:46.390Z,24.10
2018-08-10T15:59:54.596Z,23.90
2018-08-10T16:04:02.789Z,23.60
2018-08-10T16:08:11.002Z,23.60
2018-08-10T16:12:19.176Z,23.60
2018-08-10T16:16:27.445Z,23.70
2018-08-10T16:20:35.721Z,24.10
2018-08-10T16:24:43.885Z,24.00
2018-08-10T16:28:52.065Z,23.40
2018-08-10T16:33:00.446Z,23.00
2018-08-10T16:37:08.816Z,22.80
2018-08-10T16:41:17.079Z,22.90
2018-08-10T16:45:25.265Z,23.20
2018-08-10T16:49:33.481Z,23.40
2018-08-10T16:53:41.696Z,23.50
2018-08-10T16:57:50.337Z,23.40
2018-08-10T17:01:58.562Z,23.20
2018-08-10T17:06:06.880Z,23.20
2018-08-10T17:10:15.543Z,23.50
2018-08-10T17:14:23.755Z,23.70
2018-08-10T17:18:31.938Z,24.70
2018-08-10T17:22:40.527Z,26.30
2018-08-10T17:26:48.767Z,27.60
2018-08-10T17:30:56.967Z,28.40
2018-08-10T17:35:06.243Z,28.90
2018-08-10T17:39:14.691Z,29.60
2018-08-10T17:43:22.885Z,30.40
2018-08-10T17:47:31.061Z,30.50
2018-08-10T17:51:39.305Z,30.20
2018-08-10T17:55:47.482Z,28.70
2018-08-10T17:59:55.689Z,27.30
2018-08-10T18:04:03.980Z,25.60
2018-08-10T18:08:12.335Z,24.10
2018-08-10T18:12:20.571Z,22.90
2018-08-10T18:16:28.739Z,22.10
2018-08-10T18:20:36.941Z,21.50
2018-08-10T18:24:45.190Z,21.20
2018-08-10T18:28:53.351Z,21.00
2018-08-10T18:33:01.509Z,20.80
2018-08-10T18:37:09.696Z,20.60
2018-08-10T18:41:17.870Z,20.30
2018-08-10T18:45:26.099Z,20.10
2018-08-10T18:49:34.286Z,19.90
2018-08-10T18:53:42.479Z,19.80
2018-08-10T18:57:51.055Z,19.60
2018-08-10T19:01:59.263Z,19.50
2018-08-10T19:06:07.562Z,19.30
2018-08-10T19:10:20.100Z,19.10
2018-08-10T19:14:28.312Z,18.90
2018-08-10T19:18:36.536Z,18.80
2018-08-10T19:22:45.203Z,18.70
2018-08-10T19:26:53.409Z,18.50
2018-08-10T19:31:02.686Z,18.40
2018-08-10T19:35:10.897Z,18.30
2018-08-10T19:43:27.062Z,18.10
2018-08-10T19:47:35.463Z,18.00
2018-08-10T19:51:43.674Z,18.00
2018-08-10T19:55:51.898Z,17.90
2018-08-10T20:00:00.423Z,17.90
2018-08-10T20:04:08.889Z,17.70
2018-08-10T20:08:17.540Z,17.60
2018-08-10T20:12:25.729Z,17.50
2018-08-10T20:16:34.110Z,17.30
2018-08-10T20:20:42.371Z,17.20
2018-08-10T20:24:50.759Z,17.20
2018-08-10T20:28:59.196Z,17.20
2018-08-10T20:33:07.448Z,17.20
2018-08-10T20:37:15.642Z,17.30
2018-08-10T20:41:24.845Z,17.30
2018-08-10T20:45:33.156Z,17.40
2018-08-10T20:49:41.417Z,17.40
2018-08-10T20:53:49.609Z,17.30
2018-08-10T20:57:57.823Z,17.30
2018-08-10T21:02:06.038Z,17.20
2018-08-10T21:06:14.556Z,17.10
2018-08-10T21:10:22.738Z,17.00
2018-08-10T21:14:30.947Z,17.00
2018-08-10T21:18:39.160Z,17.00
2018-08-10T21:22:47.360Z,17.00
2018-08-10T21:26:55.572Z,16.90
2018-08-10T21:31:03.808Z,16.80
2018-08-10T21:35:12.070Z,16.70
2018-08-10T21:39:20.274Z,16.60
2018-08-10T21:43:28.519Z,16.50
2018-08-10T21:47:37.206Z,16.50
2018-08-10T21:51:45.437Z,16.40
2018-08-10T21:55:53.705Z,16.40
2018-08-10T22:00:01.918Z,16.40
2018-08-10T22:04:10.094Z,16.30
2018-08-10T22:08:19.422Z,16.20
2018-08-10T22:12:27.597Z,16.20
2018-08-10T22:16:41.355Z,16.10
2018-08-10T22:20:49.549Z,16.00
2018-08-10T22:24:57.764Z,15.90
2018-08-10T22:29:05.950Z,15.80
2018-08-10T22:33:14.213Z,15.70
2018-08-10T22:37:22.368Z,15.70
2018-08-10T22:41:30.649Z,15.60
2018-08-10T22:45:38.989Z,15.50
2018-08-10T22:49:47.290Z,15.50
2018-08-10T22:53:55.617Z,15.40
2018-08-10T22:58:03.839Z,15.30
2018-08-10T23:02:12.041Z,15.30
2018-08-10T23:06:20.255Z,15.30
2018-08-10T23:10:28.459Z,15.20
2018-08-10T23:14:36.643Z,15.20
2018-08-10T23:18:44.863Z,15.20
2018-08-10T23:22:53.202Z,15.10
2018-08-10T23:27:01.451Z,15.00
2018-08-10T23:31:09.645Z,14.90
2018-08-10T23:35:18.016Z,14.90
2018-08-10T23:39:26.454Z,15.00
2018-08-10T23:43:34.629Z,15.00
2018-08-10T23:47:43.458Z,15.00
2018-08-10T23:51:51.691Z,15.00
2018-08-10T23:55:59.877Z,15.00
